Time;durP1;ratioP1;P1;durP2;ratioP2;P2;SDS_P1;SDS_P2;PMS_P1;PMS_P2;Temp;Humidity;BMP_temperature;BMP_pressure;BME280_temperature;BME280_humidity;BME280_pressure;Samples;Min_cycle;Max_cycle;Signal;HPM_P1;HPM_P2
2022/01/08 00:01:12;;;;;;;9.75;4.60;;;-2.10;99.90;;;;;;5053849;28;20477;-69
2022/01/08 00:03:39;;;;;;;8.68;4.68;;;-2.10;99.90;;;;;;5053624;28;20021;-69
2022/01/08 00:06:05;;;;;;;7.60;4.30;;;-2.20;99.90;;;;;;5053506;28;20048;-69
2022/01/08 00:08:31;;;;;;;9.20;4.45;;;-2.20;99.90;;;;;;5053555;28;20071;-69
2022/01/08 00:10:58;;;;;;;8.32;4.47;;;-2.20;99.90;;;;;;5053210;28;20465;-69
2022/01/08 00:13:23;;;;;;;10.18;4.97;;;-2.20;99.90;;;;;;5052191;28;20021;-69
2022/01/08 00:15:49;;;;;;;10.65;5.18;;;-2.20;99.90;;;;;;5053415;28;20081;-69
2022/01/08 00:18:15;;;;;;;7.82;4.85;;;-2.20;99.90;;;;;;5053413;28;20029;-69
2022/01/08 00:20:40;;;;;;;8.30;4.00;;;-2.20;99.90;;;;;;5053291;28;20031;-69
2022/01/08 00:23:06;;;;;;;10.07;4.53;;;-2.20;99.90;;;;;;5053218;28;20036;-69
2022/01/08 00:25:32;;;;;;;7.68;3.83;;;-2.20;99.90;;;;;;5053544;28;20021;-69
2022/01/08 00:27:58;;;;;;;7.88;4.03;;;-2.20;99.90;;;;;;5053117;28;20044;-69
2022/01/08 00:30:23;;;;;;;8.10;4.30;;;-2.20;99.90;;;;;;5053238;28;20366;-69
2022/01/08 00:32:49;;;;;;;9.85;5.00;;;-2.20;99.90;;;;;;5053190;28;20040;-69
2022/01/08 00:35:16;;;;;;;7.45;4.20;;;-2.20;99.90;;;;;;5053193;28;20043;-69
2022/01/08 00:37:42;;;;;;;8.73;4.78;;;-2.20;99.90;;;;;;5052924;28;20028;-69
2022/01/08 00:40:10;;;;;;;11.10;5.43;;;-2.30;99.90;;;;;;5053158;28;20029;-69
2022/01/08 00:42:37;;;;;;;8.93;4.53;;;-2.30;99.90;;;;;;5052961;28;20427;-69
2022/01/08 00:45:04;;;;;;;8.32;4.53;;;-2.30;99.90;;;;;;5052971;28;20029;-69
2022/01/08 00:47:30;;;;;;;8.77;4.25;;;-2.30;99.90;;;;;;5053045;28;20025;-69
2022/01/08 00:49:55;;;;;;;8.65;4.60;;;-2.30;99.90;;;;;;5053159;28;20028;-69
2022/01/08 00:52:21;;;;;;;7.22;4.15;;;-2.30;99.90;;;;;;5052944;28;20068;-69
2022/01/08 00:54:47;;;;;;;8.93;4.32;;;-2.30;99.90;;;;;;5053024;28;20040;-69
2022/01/08 00:57:13;;;;;;;7.43;4.60;;;-2.40;99.90;;;;;;5052810;28;20092;-69
2022/01/08 00:59:38;;;;;;;8.65;3.95;;;-2.30;99.90;;;;;;5052974;28;20032;-69
2022/01/08 01:02:04;;;;;;;10.93;4.38;;;-2.40;99.90;;;;;;5052903;28;20033;-69
2022/01/08 01:04:30;;;;;;;8.25;4.30;;;-2.40;99.90;;;;;;5053150;28;20028;-69
2022/01/08 01:06:55;;;;;;;7.15;4.80;;;-2.40;99.90;;;;;;5052903;28;20026;-69
2022/01/08 01:09:21;;;;;;;6.40;4.25;;;-2.40;99.90;;;;;;5051676;28;20079;-69
2022/01/08 01:11:47;;;;;;;11.10;4.97;;;-2.40;99.90;;;;;;5051509;28;20508;-69
2022/01/08 01:14:13;;;;;;;10.45;5.18;;;-2.50;99.90;;;;;;5052823;28;20100;-69
2022/01/08 01:16:39;;;;;;;9.13;5.10;;;-2.50;99.90;;;;;;5052880;28;20358;-69
2022/01/08 01:19:04;;;;;;;7.78;4.75;;;-2.50;99.90;;;;;;5052979;28;20025;-69
2022/01/08 01:21:31;;;;;;;11.70;5.10;;;-2.50;99.90;;;;;;5051414;28;20117;-69
2022/01/08 01:23:58;;;;;;;13.70;6.45;;;-2.50;99.90;;;;;;5052592;28;20033;-70
2022/01/08 01:26:28;;;;;;;10.27;5.85;;;-2.60;99.90;;;;;;5052375;28;20082;-69
2022/01/08 01:29:00;;;;;;;13.10;7.38;;;-2.60;99.90;;;;;;5053282;28;20017;-69
2022/01/08 01:42:24;;;;;;;10.52;5.40;;;-2.70;99.90;;;;;;5052576;28;20087;-68
2022/01/08 01:47:35;;;;;;;9.00;5.15;;;-2.80;99.90;;;;;;5052927;28;20440;-68
2022/01/08 01:50:04;;;;;;;10.13;5.15;;;-2.90;99.90;;;;;;5055627;28;20057;-68
2022/01/08 01:52:30;;;;;;;7.75;4.38;;;-2.90;99.90;;;;;;5056082;28;20465;-68
2022/01/08 01:54:56;;;;;;;6.80;4.30;;;-3.00;99.90;;;;;;5056031;28;20037;-68
2022/01/08 01:57:22;;;;;;;6.55;3.80;;;-3.00;99.90;;;;;;5054515;28;20377;-68
2022/01/08 01:59:48;;;;;;;6.75;4.10;;;-3.00;99.90;;;;;;5055977;28;20488;-68
2022/01/08 02:02:14;;;;;;;11.82;4.53;;;-3.00;99.90;;;;;;5055848;28;20029;-68
2022/01/08 02:04:39;;;;;;;10.75;4.50;;;-3.00;99.90;;;;;;5056030;28;20282;-68
2022/01/08 02:07:07;;;;;;;15.10;5.07;;;-3.00;99.90;;;;;;5056080;28;20021;-68
2022/01/08 02:09:37;;;;;;;13.15;5.05;;;-3.10;99.90;;;;;;5056063;28;20021;-68
2022/01/08 02:12:05;;;;;;;15.98;5.90;;;-3.00;99.90;;;;;;5055556;28;20392;-68
2022/01/08 02:14:34;;;;;;;16.98;6.47;;;-3.10;99.90;;;;;;5055629;28;20028;-68
2022/01/08 02:17:02;;;;;;;10.90;5.53;;;-3.10;99.90;;;;;;5055867;28;20469;-68
2022/01/08 02:19:28;;;;;;;8.20;4.28;;;-3.20;99.90;;;;;;5054241;28;20083;-68
2022/01/08 02:21:59;;;;;;;9.23;4.40;;;-3.30;99.90;;;;;;5055989;28;20021;-68
2022/01/08 02:24:26;;;;;;;6.32;3.70;;;-3.40;99.90;;;;;;5053983;28;20591;-68
2022/01/08 02:26:52;;;;;;;9.15;3.95;;;-3.50;99.90;;;;;;5055180;28;20079;-68
2022/01/08 02:29:20;;;;;;;9.40;4.60;;;-3.50;99.90;;;;;;5055386;28;20413;-68
2022/01/08 02:32:03;;;;;;;7.93;4.18;;;-3.60;99.90;;;;;;5053995;28;20029;-68
2022/01/08 02:34:29;;;;;;;8.27;4.20;;;-3.60;99.90;;;;;;5055608;28;20100;-68
2022/01/08 02:36:56;;;;;;;8.52;4.13;;;-3.60;99.90;;;;;;5055209;28;20104;-67
2022/01/08 02:39:23;;;;;;;8.88;4.40;;;-3.70;99.90;;;;;;5055416;28;20021;-68
2022/01/08 02:41:53;;;;;;;6.72;3.60;;;-3.80;99.90;;;;;;5054874;28;20028;-68
2022/01/08 02:44:19;;;;;;;6.95;3.15;;;-3.90;99.90;;;;;;5055087;28;20469;-68
2022/01/08 02:46:45;;;;;;;7.00;2.95;;;-4.00;99.90;;;;;;5055022;28;20035;-68
2022/01/08 02:49:11;;;;;;;5.28;3.05;;;-4.00;99.90;;;;;;5054966;28;20025;-68
2022/01/08 02:51:37;;;;;;;7.18;3.42;;;-4.00;99.90;;;;;;5054857;28;20052;-68
2022/01/08 02:54:06;;;;;;;6.65;3.33;;;-4.00;99.90;;;;;;5054906;28;20025;-68
2022/01/08 02:56:32;;;;;;;5.93;3.30;;;-4.00;99.90;;;;;;5053368;28;20021;-67
2022/01/08 02:58:58;;;;;;;9.20;4.43;;;-4.00;99.90;;;;;;5055020;28;20044;-68
2022/01/08 03:01:23;;;;;;;8.07;4.25;;;-4.00;99.90;;;;;;5055067;28;20064;-68
2022/01/08 03:03:52;;;;;;;9.90;4.50;;;-4.00;99.90;;;;;;5053478;28;20024;-68
2022/01/08 03:06:17;;;;;;;7.60;4.32;;;-4.10;99.90;;;;;;5054537;28;20074;-68
2022/01/08 03:08:43;;;;;;;11.23;5.43;;;-4.20;99.90;;;;;;5054937;28;20017;-68
2022/01/08 03:11:09;;;;;;;10.27;5.45;;;-4.20;99.90;;;;;;5054511;28;20490;-68
2022/01/08 03:13:34;;;;;;;16.83;8.10;;;-4.20;99.90;;;;;;5054251;28;20021;-68
2022/01/08 03:16:00;;;;;;;11.30;5.20;;;-4.20;99.90;;;;;;5054765;28;20029;-68
2022/01/08 03:18:26;;;;;;;6.43;3.38;;;-4.40;99.90;;;;;;5054979;28;20049;-68
2022/01/08 03:21:01;;;;;;;7.50;3.60;;;-4.50;99.90;;;;;;5054282;28;20470;-68
2022/01/08 03:23:39;;;;;;;9.13;4.68;;;-4.60;99.90;;;;;;5052945;28;20040;-68
2022/01/08 03:26:05;;;;;;;6.25;4.57;;;-4.70;99.90;;;;;;5054521;28;20034;-68
2022/01/08 03:28:31;;;;;;;9.82;5.40;;;-4.70;99.90;;;;;;5054015;28;20025;-68
2022/01/08 03:30:57;;;;;;;6.95;3.70;;;-4.70;99.90;;;;;;5054186;28;20469;-68
2022/01/08 03:33:22;;;;;;;4.32;2.65;;;-4.70;99.90;;;;;;5052787;28;20017;-68
2022/01/08 03:35:48;;;;;;;5.13;2.85;;;-4.80;99.90;;;;;;5054099;28;20036;-68
2022/01/08 03:38:14;;;;;;;5.07;2.80;;;-4.80;99.90;;;;;;5054318;28;20465;-67
2022/01/08 03:40:39;;;;;;;6.30;3.80;;;-4.90;99.90;;;;;;5053990;28;20536;-68
2022/01/08 03:43:05;;;;;;;5.80;3.22;;;-4.90;99.90;;;;;;5053739;28;20025;-68
2022/01/08 03:45:31;;;;;;;5.93;3.58;;;-4.90;99.90;;;;;;5053907;28;20087;-68
2022/01/08 03:48:18;;;;;;;6.82;3.20;;;-5.00;99.90;;;;;;5053872;28;20366;-68
2022/01/08 03:50:44;;;;;;;5.38;3.08;;;-5.00;99.90;;;;;;5052598;28;20048;-68
2022/01/08 03:53:10;;;;;;;5.43;3.00;;;-5.10;99.90;;;;;;5053751;28;20025;-67
2022/01/08 03:55:36;;;;;;;5.95;2.78;;;-5.10;99.90;;;;;;5053775;28;20029;-68
2022/01/08 03:58:01;;;;;;;5.47;2.90;;;-5.20;99.90;;;;;;5053535;28;20051;-68
2022/01/08 04:00:27;;;;;;;6.45;3.08;;;-5.10;99.90;;;;;;5053711;28;20376;-68
2022/01/08 04:02:53;;;;;;;6.72;3.35;;;-5.10;99.90;;;;;;5053574;28;20032;-68
2022/01/08 04:05:20;;;;;;;9.20;4.68;;;-5.10;99.90;;;;;;5053519;28;20388;-68
2022/01/08 04:07:45;;;;;;;8.52;4.30;;;-5.10;99.90;;;;;;5053595;28;20029;-68
2022/01/08 04:10:12;;;;;;;17.83;7.72;;;-5.10;99.90;;;;;;5053825;28;20437;-68
2022/01/08 04:12:43;;;;;;;34.88;13.85;;;-5.10;99.90;;;;;;5052710;28;20025;-68
2022/01/08 04:15:32;;;;;;;40.42;15.15;;;-5.20;99.90;;;;;;5053771;28;20526;-68
2022/01/08 04:17:55;;;;;;;27.85;11.93;;;-5.20;99.90;;;;;;5053330;28;20036;-67
2022/01/08 04:20:22;;;;;;;20.35;8.93;;;-5.20;99.90;;;;;;5053319;28;20028;-68
2022/01/08 04:22:50;;;;;;;16.60;8.27;;;-5.20;99.90;;;;;;5053630;28;20466;-68
2022/01/08 04:25:18;;;;;;;8.43;4.70;;;-5.30;99.90;;;;;;5053058;28;20438;-68
2022/01/08 04:27:44;;;;;;;8.35;4.30;;;-5.40;99.90;;;;;;5051823;28;20028;-68
2022/01/08 04:30:10;;;;;;;7.55;4.53;;;-5.60;99.90;;;;;;5053534;28;20024;-68
2022/01/08 04:32:36;;;;;;;8.82;4.05;;;-5.60;99.90;;;;;;5051849;28;20021;-68
2022/01/08 04:35:02;;;;;;;8.88;4.35;;;-5.70;99.90;;;;;;5053228;28;20025;-67
2022/01/08 04:37:28;;;;;;;6.85;3.80;;;-5.80;99.90;;;;;;5053164;28;20117;-67
2022/01/08 04:39:53;;;;;;;8.85;4.47;;;-5.80;99.90;;;;;;5053461;28;20485;-67
2022/01/08 04:42:19;;;;;;;6.68;4.13;;;-5.80;99.90;;;;;;5053010;28;20017;-68
2022/01/08 04:44:45;;;;;;;9.60;4.10;;;-5.80;99.90;;;;;;5053051;28;20103;-68
2022/01/08 04:47:11;;;;;;;7.22;4.47;;;-5.80;99.90;;;;;;5053072;28;20469;-68
2022/01/08 04:49:36;;;;;;;6.40;3.50;;;-5.80;99.90;;;;;;5053083;28;20079;-70
2022/01/08 04:52:02;;;;;;;9.25;4.13;;;-5.70;99.90;;;;;;5053162;28;20470;-70
2022/01/08 04:54:28;;;;;;;7.10;4.18;;;-5.70;99.90;;;;;;5053002;28;20473;-68
2022/01/08 04:56:54;;;;;;;9.35;4.35;;;-5.70;99.90;;;;;;5053318;28;20083;-67
2022/01/08 04:59:19;;;;;;;6.97;3.70;;;-5.70;99.90;;;;;;5051692;28;20589;-68
2022/01/08 05:01:45;;;;;;;6.47;3.53;;;-5.70;99.90;;;;;;5052893;28;20083;-67
2022/01/08 05:04:11;;;;;;;5.43;3.38;;;-5.70;99.90;;;;;;5052960;28;20021;-68
2022/01/08 05:06:36;;;;;;;12.38;3.80;;;-5.70;99.90;;;;;;5052827;28;20040;-67
2022/01/08 05:09:04;;;;;;;6.25;3.40;;;-5.80;99.90;;;;;;5052891;28;20021;-67
2022/01/08 05:11:30;;;;;;;7.00;3.53;;;-5.70;99.90;;;;;;5053315;28;20017;-68
2022/01/08 05:13:56;;;;;;;6.32;3.55;;;-5.80;99.90;;;;;;5051332;28;20025;-67
2022/01/08 05:16:23;;;;;;;5.25;2.97;;;-5.80;99.90;;;;;;5052858;28;20029;-67
2022/01/08 05:18:52;;;;;;;6.82;3.40;;;-5.80;99.90;;;;;;5052850;28;20028;-67
2022/01/08 05:23:43;;;;;;;410.23;104.65;;;-5.80;99.90;;;;;;5053833;28;20103;-68
2022/01/08 05:26:09;;;;;;;358.00;92.95;;;-5.90;99.90;;;;;;5056485;28;20477;-68
2022/01/08 05:28:35;;;;;;;173.20;49.10;;;-6.00;99.90;;;;;;5056241;28;20432;-68
2022/01/08 05:31:01;;;;;;;63.75;19.15;;;-6.00;99.90;;;;;;5056492;28;20389;-68
2022/01/08 05:33:26;;;;;;;20.67;8.38;;;-6.00;99.90;;;;;;5055114;28;20420;-68
2022/01/08 05:35:52;;;;;;;11.75;4.95;;;-6.00;99.90;;;;;;5056397;28;20435;-68
2022/01/08 05:38:18;;;;;;;12.02;4.90;;;-6.10;99.90;;;;;;5056399;28;20083;-68
2022/01/08 05:40:44;;;;;;;9.35;4.68;;;-6.20;99.90;;;;;;5055009;28;20028;-68
2022/01/08 05:43:09;;;;;;;10.60;5.20;;;-6.20;99.90;;;;;;5056285;28;20033;-67
2022/01/08 05:45:35;;;;;;;11.02;4.70;;;-6.10;99.90;;;;;;5056397;28;20104;-68
2022/01/08 05:48:01;;;;;;;16.95;8.55;;;-6.10;99.90;;;;;;5056453;28;20044;-68
2022/01/08 05:50:26;;;;;;;24.23;12.48;;;-6.20;99.90;;;;;;5054845;28;20049;-67
2022/01/08 05:52:52;;;;;;;30.13;17.50;;;-6.20;99.90;;;;;;5056011;28;20021;-68
2022/01/08 05:55:18;;;;;;;28.50;18.83;;;-6.30;99.90;;;;;;5056069;28;20032;-68
2022/01/08 05:57:44;;;;;;;22.52;11.68;;;-6.40;99.90;;;;;;5055755;28;20025;-67
2022/01/08 06:00:10;;;;;;;17.08;8.93;;;-6.50;99.90;;;;;;5056220;28;20024;-68
2022/01/08 06:02:36;;;;;;;19.08;8.93;;;-6.60;99.90;;;;;;5056017;28;20075;-68
2022/01/08 06:05:04;;;;;;;17.33;8.32;;;-6.70;99.90;;;;;;5056029;28;20036;-68
2022/01/08 06:07:30;;;;;;;14.75;6.68;;;-6.70;99.90;;;;;;5056152;28;20075;-68
2022/01/08 06:09:55;;;;;;;10.32;6.10;;;-6.70;99.90;;;;;;5055807;28;20055;-67
2022/01/08 06:12:21;;;;;;;11.05;5.65;;;-6.70;99.90;;;;;;5055393;28;20426;-67
2022/01/08 06:14:47;;;;;;;9.95;5.40;;;-6.60;99.90;;;;;;5055886;28;20029;-67
2022/01/08 06:17:13;;;;;;;11.07;4.55;;;-6.70;99.90;;;;;;5055586;28;20033;-67
2022/01/08 06:19:38;;;;;;;11.13;4.47;;;-6.80;99.90;;;;;;5055780;28;20103;-67
2022/01/08 06:22:04;;;;;;;9.15;4.55;;;-6.80;99.90;;;;;;5054052;28;20075;-67
2022/01/08 06:24:30;;;;;;;7.95;4.40;;;-6.80;99.90;;;;;;5055401;28;20108;-67
2022/01/08 06:26:56;;;;;;;9.10;4.93;;;-6.70;99.90;;;;;;5055425;28;20100;-67
2022/01/08 06:29:22;;;;;;;7.40;4.50;;;-6.60;99.90;;;;;;5055140;28;20428;-67
2022/01/08 06:31:47;;;;;;;10.77;5.60;;;-6.50;99.90;;;;;;5055266;28;20021;-67
2022/01/08 06:34:13;;;;;;;14.48;5.78;;;-6.50;99.90;;;;;;5054675;28;20448;-67
2022/01/08 06:36:39;;;;;;;10.82;5.00;;;-6.40;99.90;;;;;;5055273;28;20029;-67
2022/01/08 06:39:05;;;;;;;14.85;5.78;;;-6.30;99.90;;;;;;5055498;28;20021;-67
2022/01/08 06:41:31;;;;;;;18.13;9.43;;;-6.30;99.90;;;;;;5055243;28;20397;-67
2022/01/08 06:43:57;;;;;;;37.78;15.40;;;-6.30;99.90;;;;;;5053611;28;20033;-67
2022/01/08 06:46:24;;;;;;;15.18;8.73;;;-6.20;99.90;;;;;;5055309;28;20028;-67
2022/01/08 06:48:50;;;;;;;15.07;6.40;;;-6.20;99.90;;;;;;5055332;28;20049;-67
2022/01/08 06:51:15;;;;;;;9.35;4.40;;;-6.10;99.90;;;;;;5054928;28;20071;-67
2022/01/08 06:53:41;;;;;;;8.27;4.35;;;-6.10;99.90;;;;;;5055478;28;20151;-67
2022/01/08 06:56:07;;;;;;;8.60;3.63;;;-6.10;99.90;;;;;;5055253;28;20396;-67
2022/01/08 06:58:34;;;;;;;6.93;4.00;;;-6.10;99.90;;;;;;5054700;28;20025;-67
2022/01/08 07:01:00;;;;;;;7.30;4.28;;;-6.10;99.90;;;;;;5054110;28;20028;-67
2022/01/08 07:03:25;;;;;;;9.60;3.60;;;-6.10;99.90;;;;;;5054676;28;20386;-66
2022/01/08 07:05:51;;;;;;;7.18;3.97;;;-6.10;99.90;;;;;;5055209;28;20070;-67
2022/01/08 07:08:17;;;;;;;9.27;4.22;;;-6.10;99.90;;;;;;5054673;28;20105;-67
2022/01/08 07:10:42;;;;;;;11.32;5.50;;;-6.10;99.90;;;;;;5054923;28;20033;-67
2022/01/08 07:13:08;;;;;;;10.57;4.13;;;-6.30;99.90;;;;;;5054474;28;20025;-67
2022/01/08 07:15:34;;;;;;;8.38;4.10;;;-6.30;99.90;;;;;;5054462;28;20025;-66
2022/01/08 07:18:00;;;;;;;11.60;4.95;;;-6.30;99.90;;;;;;5054720;28;20068;-67
2022/01/08 07:20:26;;;;;;;8.55;4.57;;;-6.30;99.90;;;;;;5054374;28;20025;-67
2022/01/08 07:22:51;;;;;;;9.43;4.13;;;-6.20;99.90;;;;;;5053320;28;20442;-67
2022/01/08 07:25:17;;;;;;;12.35;6.75;;;-6.10;99.90;;;;;;5054115;28;20037;-67
2022/01/08 07:27:43;;;;;;;10.73;6.07;;;-6.10;99.90;;;;;;5054503;28;20039;-67
2022/01/08 07:30:10;;;;;;;10.80;5.63;;;-6.00;99.90;;;;;;5054256;28;20032;-67
2022/01/08 07:32:43;;;;;;;12.32;6.13;;;-5.90;99.90;;;;;;5054440;28;20017;-67
2022/01/08 07:35:10;;;;;;;9.77;5.53;;;-5.80;99.90;;;;;;5054204;28;20025;-67
2022/01/08 07:37:36;;;;;;;8.73;4.55;;;-5.80;99.90;;;;;;5054421;28;20109;-69
2022/01/08 07:40:04;;;;;;;12.40;6.50;;;-5.80;99.90;;;;;;5054060;28;20057;-69
2022/01/08 07:42:30;;;;;;;19.70;9.30;;;-5.70;99.90;;;;;;5053705;28;20060;-68
2022/01/08 07:44:55;;;;;;;19.25;9.25;;;-5.70;99.90;;;;;;5054230;28;20064;-69
2022/01/08 07:47:21;;;;;;;18.02;10.10;;;-5.80;99.90;;;;;;5053194;28;20017;-69
2022/01/08 07:49:47;;;;;;;16.75;9.02;;;-5.80;99.90;;;;;;5054114;28;20025;-68
2022/01/08 07:52:12;;;;;;;16.40;8.60;;;-5.80;99.90;;;;;;5054016;28;20079;-68
2022/01/08 07:54:38;;;;;;;15.85;7.72;;;-5.70;99.90;;;;;;5053826;28;20064;-69
2022/01/08 07:57:04;;;;;;;19.63;7.93;;;-5.80;99.90;;;;;;5054334;28;20032;-68
2022/01/08 07:59:29;;;;;;;19.88;8.88;;;-5.90;99.90;;;;;;5053568;28;20422;-68
2022/01/08 08:01:55;;;;;;;15.50;8.70;;;-6.00;99.90;;;;;;5052289;28;20028;-68
2022/01/08 08:04:21;;;;;;;16.10;9.10;;;-6.00;99.90;;;;;;5053963;28;20029;-69
2022/01/08 08:06:47;;;;;;;19.08;10.65;;;-5.80;99.90;;;;;;5053468;28;20386;-69
2022/01/08 08:09:14;;;;;;;15.55;8.07;;;-5.70;99.90;;;;;;5053627;28;20448;-69
2022/01/08 08:11:40;;;;;;;11.52;5.63;;;-5.50;99.90;;;;;;5053467;28;20436;-69
2022/01/08 08:14:06;;;;;;;15.38;7.70;;;-5.40;99.90;;;;;;5053308;28;20025;-69
2022/01/08 08:16:32;;;;;;;14.05;7.05;;;-5.20;99.90;;;;;;5053413;28;20027;-69
2022/01/08 08:18:57;;;;;;;15.18;7.82;;;-5.10;99.90;;;;;;5053646;28;20025;-69
2022/01/08 08:21:23;;;;;;;12.35;6.35;;;-5.00;99.90;;;;;;5053257;28;20108;-68
2022/01/08 08:23:49;;;;;;;10.43;6.25;;;-5.00;99.90;;;;;;5053297;28;20032;-69
2022/01/08 08:26:15;;;;;;;16.17;7.57;;;-4.90;99.90;;;;;;5053283;28;20032;-68
2022/01/08 08:28:41;;;;;;;17.23;8.45;;;-4.80;99.90;;;;;;5053196;28;20025;-68
2022/01/08 08:31:07;;;;;;;14.13;7.55;;;-4.70;99.90;;;;;;5053573;28;20373;-68
2022/01/08 08:33:33;;;;;;;20.55;8.55;;;-4.70;99.90;;;;;;5053191;28;20017;-69
2022/01/08 08:35:59;;;;;;;20.58;11.30;;;-4.80;99.90;;;;;;5053253;28;20481;-69
2022/01/08 08:38:24;;;;;;;18.65;10.18;;;-4.70;99.90;;;;;;5053202;28;20021;-69
2022/01/08 08:40:51;;;;;;;16.48;8.02;;;-4.70;99.90;;;;;;5053176;28;20033;-69
2022/01/08 08:43:19;;;;;;;13.73;7.25;;;-4.70;99.90;;;;;;5052851;28;20021;-68
2022/01/08 08:45:45;;;;;;;11.75;7.35;;;-4.70;99.90;;;;;;5053043;28;20108;-69
2022/01/08 08:48:11;;;;;;;25.05;11.40;;;-4.60;99.90;;;;;;5052125;28;20068;-69
2022/01/08 08:50:36;;;;;;;13.38;7.50;;;-4.50;99.90;;;;;;5053118;28;20100;-69
2022/01/08 08:53:02;;;;;;;13.43;7.22;;;-4.50;99.90;;;;;;5053074;28;20465;-69
2022/01/08 08:55:28;;;;;;;16.00;7.20;;;-4.30;99.90;;;;;;5053308;28;20025;-69
2022/01/08 08:57:53;;;;;;;12.10;6.75;;;-4.20;99.90;;;;;;5054440;28;20037;-68
2022/01/08 09:00:19;;;;;;;9.30;5.05;;;-4.00;99.90;;;;;;5057081;28;20358;-69
2022/01/08 09:02:45;;;;;;;14.45;6.15;;;-4.00;99.90;;;;;;5057011;28;20026;-69
2022/01/08 09:05:11;;;;;;;15.23;6.95;;;-3.90;99.90;;;;;;5056924;28;20065;-69
2022/01/08 09:07:38;;;;;;;13.48;6.22;;;-3.80;99.90;;;;;;5056964;28;20025;-69
2022/01/08 09:10:06;;;;;;;11.93;5.43;;;-3.80;99.90;;;;;;5057209;28;20095;-69
2022/01/08 09:12:32;;;;;;;10.95;5.40;;;-3.70;99.90;;;;;;5056772;28;20028;-69
2022/01/08 09:14:57;;;;;;;13.32;5.93;;;-3.60;99.90;;;;;;5055633;28;20029;-69
2022/01/08 09:17:25;;;;;;;9.30;4.82;;;-3.50;99.90;;;;;;5056852;28;20021;-69
2022/01/08 09:19:51;;;;;;;10.52;5.15;;;-3.40;99.90;;;;;;5056706;28;20021;-69
2022/01/08 09:22:17;;;;;;;14.23;8.23;;;-3.40;99.90;;;;;;5062474;28;20028;-68
2022/01/08 09:24:45;;;;;;;27.60;13.00;;;-3.30;99.90;;;;;;5095620;28;20484;-69
2022/01/08 09:27:12;;;;;;;13.35;6.80;;;-3.20;99.90;;;;;;5087117;28;20027;-69
2022/01/08 09:29:38;;;;;;;32.00;11.75;;;-3.10;99.90;;;;;;5065834;28;20025;-69
2022/01/08 09:32:05;;;;;;;46.45;17.00;;;-3.10;99.90;;;;;;5056700;28;20021;-69
2022/01/08 09:34:31;;;;;;;66.30;23.38;;;-3.10;99.90;;;;;;5056483;28;20474;-69
2022/01/08 09:36:58;;;;;;;62.55;21.85;;;-3.00;99.90;;;;;;5056949;28;20036;-69
2022/01/08 09:39:24;;;;;;;114.28;37.13;;;-2.90;99.90;;;;;;5057006;28;20025;-69
2022/01/08 09:41:50;;;;;;;115.57;34.55;;;-2.90;99.90;;;;;;5054967;28;20388;-69
2022/01/08 09:44:16;;;;;;;60.97;19.50;;;-2.90;99.90;;;;;;5056028;28;20107;-69
2022/01/08 09:46:43;;;;;;;82.28;27.40;;;-2.80;99.90;;;;;;5056124;28;20033;-69
2022/01/08 09:49:09;;;;;;;85.35;28.23;;;-2.80;99.90;;;;;;5056185;28;20070;-69
2022/01/08 09:51:36;;;;;;;20.45;9.00;;;-2.70;99.90;;;;;;5056443;28;20074;-69
2022/01/08 09:54:02;;;;;;;42.30;17.33;;;-2.70;99.90;;;;;;5054442;28;20105;-69
2022/01/08 09:56:31;;;;;;;41.53;17.25;;;-2.80;99.90;;;;;;5056001;28;20496;-69
2022/01/08 09:58:57;;;;;;;65.05;25.25;;;-2.80;99.90;;;;;;5055965;28;20020;-69
2022/01/08 10:01:32;;;;;;;57.40;22.15;;;-2.80;99.90;;;;;;5055846;28;20028;-69
2022/01/08 10:04:00;;;;;;;98.03;36.70;;;-2.80;99.90;;;;;;5055896;28;20506;-69
2022/01/08 10:06:36;;;;;;;74.53;29.38;;;-2.90;99.90;;;;;;5055741;28;20037;-69
2022/01/08 10:09:04;;;;;;;63.85;24.98;;;-2.90;99.90;;;;;;5055230;28;20100;-69
2022/01/08 10:11:31;;;;;;;63.83;24.55;;;-2.90;99.90;;;;;;5055748;28;20100;-69
2022/01/08 10:14:02;;;;;;;61.95;24.45;;;-2.90;99.90;;;;;;5055669;28;20470;-69
2022/01/08 10:19:31;;;;;;;53.53;21.63;;;-2.70;99.90;;;;;;5056126;28;20036;-69
2022/01/08 10:21:57;;;;;;;27.85;13.30;;;-2.40;99.90;;;;;;5055590;28;20176;-69
2022/01/08 10:24:29;;;;;;;22.77;11.15;;;-2.10;99.90;;;;;;5055497;28;20041;-69
2022/01/08 10:27:03;;;;;;;12.95;7.68;;;-1.80;99.90;;;;;;5055738;28;20048;-69
2022/01/08 10:29:29;;;;;;;14.60;7.78;;;-1.60;99.90;;;;;;5055255;28;20470;-69
2022/01/08 10:31:56;;;;;;;14.50;7.38;;;-1.40;99.90;;;;;;5055304;28;20025;-69
2022/01/08 10:34:24;;;;;;;14.05;7.13;;;-1.30;99.90;;;;;;5055610;28;20025;-69
2022/01/08 10:36:55;;;;;;;11.02;5.75;;;-1.20;99.90;;;;;;5055292;28;20025;-69
2022/01/08 10:39:38;;;;;;;10.68;5.68;;;-1.30;99.90;;;;;;5055558;28;20100;-69
2022/01/08 10:42:16;;;;;;;11.73;5.95;;;-1.30;99.90;;;;;;5055419;28;20021;-69
2022/01/08 10:44:47;;;;;;;12.25;6.72;;;-1.30;99.90;;;;;;5054915;28;20020;-69
2022/01/08 10:47:17;;;;;;;15.88;7.68;;;-1.30;99.90;;;;;;5055386;28;20124;-69
2022/01/08 10:50:05;;;;;;;28.20;14.52;;;-1.40;99.90;;;;;;5055213;28;20385;-69
2022/01/08 10:52:43;;;;;;;13.60;6.72;;;-1.60;99.90;;;;;;5055068;28;20050;-69
2022/01/08 10:55:09;;;;;;;29.65;14.77;;;-1.80;99.90;;;;;;5055252;28;20025;-69
2022/01/08 10:57:37;;;;;;;16.85;9.50;;;-1.90;99.90;;;;;;5054959;28;20032;-69
2022/01/08 11:00:14;;;;;;;17.30;7.82;;;-2.00;99.90;;;;;;5054586;28;20029;-69
2022/01/08 11:02:41;;;;;;;15.60;8.05;;;-2.10;99.90;;;;;;5054883;28;20047;-69
2022/01/08 11:05:08;;;;;;;14.27;7.22;;;-2.00;99.90;;;;;;5053455;28;20502;-69
2022/01/08 11:07:34;;;;;;;17.00;6.82;;;-2.00;99.90;;;;;;5054984;28;20071;-69
2022/01/08 11:10:07;;;;;;;11.98;6.22;;;-2.00;99.90;;;;;;5054947;28;20434;-69
2022/01/08 11:12:41;;;;;;;14.77;6.57;;;-2.00;99.90;;;;;;5053407;28;20025;-69
2022/01/08 11:17:50;;;;;;;14.55;6.80;;;-1.90;99.90;;;;;;5054569;28;20025;-69
2022/01/08 11:20:17;;;;;;;13.23;6.40;;;-1.90;99.90;;;;;;5054472;28;20477;-69
2022/01/08 11:22:49;;;;;;;17.17;6.43;;;-1.80;99.90;;;;;;5054297;28;20465;-69
2022/01/08 11:25:41;;;;;;;16.05;6.90;;;-1.90;99.90;;;;;;5054246;28;20393;-69
2022/01/08 11:28:10;;;;;;;19.33;9.52;;;-1.90;99.90;;;;;;5053872;28;20116;-69
2022/01/08 11:30:38;;;;;;;11.60;7.00;;;-1.90;99.90;;;;;;5054600;28;20017;-69
2022/01/08 11:33:29;;;;;;;17.35;9.27;;;-1.90;99.90;;;;;;5054172;28;20047;-69
2022/01/08 11:35:56;;;;;;;15.60;8.82;;;-1.90;99.90;;;;;;5054167;28;20535;-69
2022/01/08 11:38:23;;;;;;;14.88;7.45;;;-1.80;99.90;;;;;;5054101;28;20481;-69
2022/01/08 11:40:52;;;;;;;13.15;6.82;;;-1.90;99.90;;;;;;5054112;28;20531;-69
2022/01/08 11:43:21;;;;;;;12.60;6.97;;;-1.90;99.90;;;;;;5053661;28;20025;-69
2022/01/08 11:45:52;;;;;;;9.98;5.70;;;-1.80;99.90;;;;;;5054160;28;20029;-70
2022/01/08 11:48:19;;;;;;;;;;;-1.80;99.90;;;;;;5054658;28;20021;-70
2022/01/08 11:50:54;;;;;;;15.65;8.88;;;-1.70;99.90;;;;;;5053812;28;20381;-69
2022/01/08 11:53:28;;;;;;;14.40;9.20;;;-1.70;99.90;;;;;;5053751;28;20454;-70
2022/01/08 11:55:54;;;;;;;17.13;6.60;;;-1.60;99.90;;;;;;5053757;28;20104;-69
2022/01/08 11:58:26;;;;;;;13.63;7.38;;;-1.50;99.90;;;;;;5053731;28;20127;-69
2022/01/08 12:00:56;;;;;;;19.20;8.27;;;-1.40;99.90;;;;;;5053693;28;20017;-69
2022/01/08 12:03:23;;;;;;;11.35;6.45;;;-1.40;99.90;;;;;;5053619;28;20025;-69
2022/01/08 12:05:49;;;;;;;10.70;6.38;;;-1.30;99.90;;;;;;5052244;28;20033;-69
2022/01/08 12:08:17;;;;;;;10.20;5.53;;;-1.20;99.90;;;;;;5053878;28;20025;-70
2022/01/08 12:11:01;;;;;;;12.65;7.53;;;-1.10;99.90;;;;;;5054084;28;20017;-70
2022/01/08 12:13:46;;;;;;;16.35;7.43;;;-1.10;99.90;;;;;;5053210;28;20100;-69
2022/01/08 12:16:40;;;;;;;14.77;7.70;;;-1.00;99.90;;;;;;5053782;28;20025;-70
2022/01/08 12:19:08;;;;;;;13.68;6.95;;;-0.90;99.90;;;;;;5053643;28;20100;-69
2022/01/08 12:21:40;;;;;;;16.90;7.72;;;-0.90;99.90;;;;;;5053315;28;20496;-70
2022/01/08 12:24:27;;;;;;;14.90;6.57;;;-0.80;99.90;;;;;;5053402;28;20056;-70
2022/01/08 12:27:01;;;;;;;13.35;7.32;;;-0.70;99.90;;;;;;5053302;28;20100;-70
2022/01/08 12:29:41;;;;;;;10.40;5.45;;;-0.50;99.90;;;;;;5051788;28;20017;-69
2022/01/08 12:32:38;;;;;;;10.82;5.35;;;-0.40;99.90;;;;;;5052837;28;20059;-70
2022/01/08 12:35:17;;;;;;;13.30;5.18;;;-0.20;99.90;;;;;;5053202;28;20020;-70
2022/01/08 12:37:55;;;;;;;11.75;6.10;;;-0.20;99.90;;;;;;5053470;28;20021;-70
2022/01/08 12:40:41;;;;;;;12.95;5.60;;;-0.30;99.90;;;;;;5053434;28;20056;-70
2022/01/08 12:43:23;;;;;;;10.38;6.05;;;-0.20;99.90;;;;;;5051840;28;20049;-70
2022/01/08 12:45:52;;;;;;;13.85;5.65;;;-0.10;99.90;;;;;;5053049;28;20074;-70
2022/01/08 12:48:19;;;;;;;12.57;5.68;;;-0.10;99.90;;;;;;5053108;28;20017;-70
2022/01/08 12:50:44;;;;;;;9.50;4.88;;;-0.10;99.90;;;;;;5053001;28;20025;-69
2022/01/08 12:53:22;;;;;;;7.20;4.20;;;0.10;99.90;;;;;;5052971;28;20029;-70
2022/01/08 12:55:57;;;;;;;9.95;4.57;;;0.20;99.90;;;;;;5053091;28;20084;-70
2022/01/08 12:58:52;;;;;;;7.43;4.43;;;0.20;99.90;;;;;;5052967;28;20420;-70
2022/01/08 13:01:21;;;;;;;9.57;4.63;;;0.20;99.90;;;;;;5050957;28;20033;-70
2022/01/08 13:03:53;;;;;;;8.93;3.70;;;0.30;99.90;;;;;;5053233;28;20029;-70
2022/01/08 13:06:20;;;;;;;8.80;3.97;;;0.30;99.90;;;;;;5052891;28;20024;-70